Time;durP1;ratioP1;P1;durP2;ratioP2;P2;SDS_P1;SDS_P2;PMS_P1;PMS_P2;Temp;Humidity;BMP_temperature;BMP_pressure;BME280_temperature;BME280_humidity;BME280_pressure;Samples;Min_cycle;Max_cycle;Signal;HPM_P1;HPM_P2
2023/01/11 00:01:15;;;;;;;4.15;2.30;;;;;;;8.73;100.00;100627.09;5110016;28;20035;-69
2023/01/11 00:03:41;;;;;;;2.50;1.90;;;;;;;8.77;100.00;100624.84;5109834;28;20031;-69
2023/01/11 00:06:07;;;;;;;3.35;2.42;;;;;;;8.77;100.00;100631.00;5109881;28;20062;-69
2023/01/11 00:08:32;;;;;;;5.13;2.45;;;;;;;8.80;100.00;100634.28;5109764;28;20031;-69
2023/01/11 00:11:01;;;;;;;4.45;2.28;;;;;;;8.80;100.00;100643.09;5108659;28;20032;-69
2023/01/11 00:13:26;;;;;;;2.97;1.90;;;;;;;8.84;100.00;100627.59;5109848;28;20571;-70
2023/01/11 00:15:52;;;;;;;3.58;1.80;;;;;;;8.84;100.00;100633.72;5109723;28;20028;-69
2023/01/11 00:18:17;;;;;;;3.58;2.00;;;;;;;8.87;100.00;100638.66;5109701;28;20116;-70
2023/01/11 00:20:42;;;;;;;2.58;1.98;;;;;;;8.89;100.00;100626.00;5109582;28;20032;-69
2023/01/11 00:23:08;;;;;;;4.68;2.63;;;;;;;8.94;100.00;100626.25;5109251;28;20020;-79
2023/01/11 00:25:34;;;;;;;6.55;2.53;;;;;;;8.99;100.00;100623.84;5099239;28;20103;-79
2023/01/11 00:27:59;;;;;;;1.58;1.40;;;;;;;9.01;100.00;100618.31;5099134;28;20024;-79
2023/01/11 00:30:25;;;;;;;2.13;1.60;;;;;;;9.04;100.00;100609.97;5098987;28;20031;-79
2023/01/11 00:32:55;;;;;;;3.78;1.85;;;;;;;9.08;100.00;100618.38;5103302;28;20440;-78
2023/01/11 00:35:20;;;;;;;2.83;2.03;;;;;;;9.12;100.00;100609.00;5098167;28;20027;-79
2023/01/11 00:37:46;;;;;;;2.63;1.92;;;;;;;9.14;100.00;100604.31;5099991;28;20020;-79
2023/01/11 00:40:11;;;;;;;3.13;1.42;;;;;;;9.17;100.00;100607.41;5099317;28;20028;-78
2023/01/11 00:48:05;;;;;;;4.30;1.63;;;;;;;9.23;100.00;100599.69;5101033;28;20102;-78
2023/01/11 00:50:34;;;;;;;3.28;1.77;;;;;;;9.23;100.00;100605.00;5102397;28;20042;-79
2023/01/11 00:53:00;;;;;;;1.80;1.23;;;;;;;9.23;100.00;100597.03;5101095;28;20024;-78
2023/01/11 00:55:26;;;;;;;3.80;1.80;;;;;;;9.14;100.00;100589.19;5101189;28;20031;-79
2023/01/11 00:57:52;;;;;;;2.13;1.50;;;;;;;9.17;100.00;100591.44;5102172;28;20027;-79
2023/01/11 01:00:19;;;;;;;3.05;2.05;;;;;;;9.14;100.00;100596.31;5097052;28;20028;-79
2023/01/11 01:02:45;;;;;;;7.20;2.53;;;;;;;9.09;100.00;100591.59;5103136;28;20034;-79
2023/01/11 01:05:11;;;;;;;3.28;1.85;;;;;;;9.10;100.00;100593.22;5103710;28;20023;-78
2023/01/11 01:07:36;;;;;;;2.72;1.77;;;;;;;9.09;100.00;100583.63;5103645;28;20051;-79
2023/01/11 01:10:03;;;;;;;4.03;1.85;;;;;;;9.07;100.00;100579.50;5104415;28;20019;-79
2023/01/11 01:15:12;;;;;;;3.75;1.70;;;;;;;9.07;100.00;100585.66;5102406;28;20138;-78
2023/01/11 01:17:37;;;;;;;3.88;1.90;;;;;;;9.05;100.00;100592.16;5102501;28;20514;-79
2023/01/11 01:20:03;;;;;;;2.33;1.70;;;;;;;9.00;100.00;100585.59;5101848;28;20039;-79
2023/01/11 01:22:29;;;;;;;2.55;1.98;;;;;;;9.01;100.00;100599.69;5102638;28;20062;-78
2023/01/11 01:24:54;;;;;;;2.90;1.80;;;;;;;9.00;100.00;100584.75;5103255;28;20031;-79
2023/01/11 01:27:19;;;;;;;2.88;2.15;;;;;;;9.00;100.00;100590.09;5102180;28;20059;-78
2023/01/11 01:29:45;;;;;;;2.50;2.05;;;;;;;9.01;100.00;100594.38;5103071;28;20027;-79
2023/01/11 01:32:10;;;;;;;3.15;2.33;;;;;;;8.96;100.00;100592.31;5102856;28;20589;-78
2023/01/11 01:34:36;;;;;;;3.50;1.95;;;;;;;8.98;100.00;100592.09;5102918;28;20054;-78
2023/01/11 01:37:06;;;;;;;3.08;2.10;;;;;;;8.99;100.00;100599.09;5103786;28;20064;-78
2023/01/11 01:39:32;;;;;;;2.35;1.77;;;;;;;9.02;100.00;100589.91;5102666;28;20031;-79
2023/01/11 01:41:57;;;;;;;1.98;1.80;;;;;;;9.00;100.00;100593.56;5105377;28;20097;-78
2023/01/11 01:44:47;;;;;;;4.32;2.10;;;;;;;9.00;100.00;100584.75;5102560;28;20031;-79
2023/01/11 01:47:13;;;;;;;2.80;1.73;;;;;;;9.02;100.00;100588.06;5101816;28;20051;-79
2023/01/11 01:49:40;;;;;;;2.50;1.70;;;;;;;9.04;100.00;100590.50;5102356;28;20102;-78
2023/01/11 01:52:06;;;;;;;2.05;1.80;;;;;;;9.04;100.00;100590.50;5105302;28;20475;-79
2023/01/11 01:54:39;;;;;;;2.40;2.20;;;;;;;9.04;100.00;100591.34;5103926;28;20181;-78
2023/01/11 01:57:11;;;;;;;2.17;1.80;;;;;;;9.02;100.00;100581.94;5102164;28;20073;-79
2023/01/11 01:59:37;;;;;;;2.25;2.03;;;;;;;9.07;100.00;100584.81;5102327;28;20027;-79
2023/01/11 02:02:02;;;;;;;2.00;1.80;;;;;;;9.09;100.00;100572.13;5101268;28;20024;-78
2023/01/11 02:04:32;;;;;;;2.60;2.03;;;;;;;9.10;100.00;100584.44;5102684;28;20035;-78
2023/01/11 02:07:09;;;;;;;3.65;2.00;;;;;;;9.12;100.00;100577.91;5100800;28;20027;-78
2023/01/11 02:09:56;;;;;;;5.25;2.30;;;;;;;9.13;100.00;100584.84;5103218;28;20035;-78
2023/01/11 02:12:24;;;;;;;3.67;1.80;;;;;;;9.13;100.00;100584.03;5100659;28;20486;-78
2023/01/11 02:14:52;;;;;;;3.85;2.00;;;;;;;9.17;100.00;100583.47;5101042;28;20152;-78
2023/01/11 02:17:17;;;;;;;2.70;2.00;;;;;;;9.18;100.00;100582.44;5101905;28;20103;-78
2023/01/11 02:20:14;;;;;;;3.83;2.38;;;;;;;9.21;100.00;100579.38;5101510;28;20138;-78
2023/01/11 02:22:54;;;;;;;3.75;2.20;;;;;;;9.23;100.00;100568.56;5101718;28;20102;-78
2023/01/11 02:25:37;;;;;;;2.15;1.95;;;;;;;9.23;100.00;100576.53;5102547;28;20054;-79
2023/01/11 02:28:06;;;;;;;3.17;2.88;;;;;;;9.28;100.00;100579.44;5104221;28;20505;-78
2023/01/11 02:30:42;;;;;;;5.03;2.13;;;;;;;9.31;100.00;100584.38;5101492;28;20028;-79
2023/01/11 02:33:17;;;;;;;4.05;1.98;;;;;;;9.33;100.00;100582.34;5102673;28;20047;-78
2023/01/11 02:36:00;;;;;;;5.15;2.53;;;;;;;9.35;100.00;100571.50;5102322;28;20020;-79
2023/01/11 02:38:32;;;;;;;2.95;2.25;;;;;;;9.36;100.00;100578.47;5101131;28;20027;-79
2023/01/11 02:47:21;;;;;;;;;;;;;;;9.42;100.00;100564.38;5103658;28;20050;-78
2023/01/11 02:50:02;;;;;;;2.55;2.10;;;;;;;9.43;100.00;100568.66;5101700;28;20002;-78
2023/01/11 02:52:41;;;;;;;4.20;2.42;;;;;;;9.43;100.00;100561.53;5102185;28;20456;-78
2023/01/11 02:55:11;;;;;;;2.22;2.03;;;;;;;9.48;100.00;100557.44;5103027;27;20164;-79
2023/01/11 02:57:38;;;;;;;3.97;2.05;;;;;;;9.51;100.00;100567.69;5102429;28;20047;-78
2023/01/11 03:00:05;;;;;;;2.80;1.77;;;;;;;9.49;100.00;100553.78;5104417;28;20039;-80
2023/01/11 03:02:31;;;;;;;2.53;1.90;;;;;;;9.52;100.00;100556.03;5098285;28;20390;-78
2023/01/11 03:04:56;;;;;;;3.17;2.05;;;;;;;9.55;100.00;100552.97;5101962;28;20036;-79
2023/01/11 03:07:59;;;;;;;3.53;2.17;;;;;;;9.56;100.00;100558.13;5102188;28;20381;-78
2023/01/11 03:10:59;;;;;;;2.50;2.10;;;;;;;9.57;100.00;100554.44;5083164;28;20122;-78
2023/01/11 03:13:31;;;;;;;2.83;1.85;;;;;;;9.62;100.00;100559.16;5099928;28;20038;-79
2023/01/11 03:16:24;;;;;;;1.85;1.65;;;;;;;9.62;100.00;100559.97;5101016;28;20059;-78
2023/01/11 03:19:11;;;;;;;3.67;2.28;;;;;;;9.63;100.00;100550.97;5104266;28;20479;-79
2023/01/11 03:21:53;;;;;;;3.70;1.90;;;;;;;9.66;100.00;100547.91;5102625;28;20031;-79
2023/01/11 03:24:51;;;;;;;2.67;1.75;;;;;;;9.66;100.00;100547.91;5100589;28;20034;-79
2023/01/11 03:27:39;;;;;;;3.83;2.05;;;;;;;9.68;100.00;100549.56;5099827;28;20020;-78
2023/01/11 03:30:13;;;;;;;2.15;1.48;;;;;;;9.69;100.00;100546.69;5101031;28;20106;-78
2023/01/11 03:32:50;;;;;;;2.92;1.60;;;;;;;9.66;100.00;100545.25;5101313;28;20107;-79
2023/01/11 03:35:26;;;;;;;2.78;2.40;;;;;;;9.66;100.00;100547.91;5099653;28;20034;-79
2023/01/11 03:38:15;;;;;;;3.42;1.80;;;;;;;9.69;100.00;100544.03;5103123;28;20081;-78
2023/01/11 03:40:46;;;;;;;2.75;1.63;;;;;;;9.68;100.00;100552.22;5101695;28;20024;-79
2023/01/11 03:43:13;;;;;;;;;;;;;;;9.70;100.00;100547.53;5101457;28;20108;-78
2023/01/11 03:45:49;;;;;;;2.95;1.45;;;;;;;9.74;100.00;100554.91;5100488;28;19921;-79
2023/01/11 03:48:20;;;;;;;1.25;1.15;;;;;;;9.75;100.00;100548.56;5096499;28;20093;-78
2023/01/11 03:50:48;;;;;;;2.35;1.70;;;;;;;9.75;100.00;100545.91;5099416;28;20039;-78
2023/01/11 03:53:17;;;;;;;4.20;2.42;;;;;;;9.76;100.00;100557.38;5100177;28;20031;-79
2023/01/11 03:55:47;;;;;;;2.45;1.30;;;;;;;9.78;100.00;100558.81;5098593;27;20022;-79
2023/01/11 03:58:12;;;;;;;1.40;1.30;;;;;;;9.78;100.00;100555.34;5096685;28;20069;-79
2023/01/11 04:00:39;;;;;;;3.60;1.30;;;;;;;9.80;100.00;100561.31;5101242;28;20035;-78
2023/01/11 04:03:04;;;;;;;2.58;1.30;;;;;;;9.81;100.00;100563.75;5099038;28;20509;-79
2023/01/11 04:05:31;;;;;;;2.97;1.10;;;;;;;9.80;100.00;100561.31;5097469;28;20024;-79
2023/01/11 04:07:56;;;;;;;2.63;1.10;;;;;;;9.81;100.00;100555.75;5098880;28;20058;-78
2023/01/11 04:10:22;;;;;;;1.50;1.08;;;;;;;9.82;100.00;100561.91;5099985;28;20042;-78
2023/01/11 04:12:47;;;;;;;2.75;1.20;;;;;;;9.81;100.00;100563.75;5099327;28;20032;-78
2023/01/11 04:15:14;;;;;;;1.70;1.30;;;;;;;9.80;100.00;100563.97;5099462;28;20039;-78
2023/01/11 04:17:40;;;;;;;1.40;1.30;;;;;;;9.81;100.00;100560.25;5099373;28;20024;-78
2023/01/11 04:20:10;;;;;;;1.00;1.00;;;;;;;9.81;100.00;100566.41;5100843;28;20027;-78
2023/01/11 04:22:35;;;;;;;1.85;1.27;;;;;;;9.81;100.00;100566.41;5103752;28;20028;-78
2023/01/11 04:25:00;;;;;;;2.15;1.30;;;;;;;9.82;100.00;100570.75;5100240;28;20050;-79
2023/01/11 04:27:26;;;;;;;2.13;1.38;;;;;;;9.83;100.00;100574.22;5099281;28;20027;-79
2023/01/11 04:29:51;;;;;;;3.90;1.35;;;;;;;9.80;100.00;100562.13;5100157;28;20036;-78
2023/01/11 04:32:17;;;;;;;4.10;1.48;;;;;;;9.86;100.00;100569.31;5097595;28;20028;-78
2023/01/11 04:34:42;;;;;;;1.85;1.30;;;;;;;9.84;100.00;100568.66;5097487;28;20032;-78
2023/01/11 04:37:08;;;;;;;3.22;1.50;;;;;;;9.85;100.00;100565.00;5098973;28;20039;-78
2023/01/11 04:39:33;;;;;;;3.72;1.90;;;;;;;9.87;100.00;100570.94;5106520;28;20017;-79
2023/01/11 04:44:48;;;;;;;2.75;1.88;;;;;;;9.94;100.00;100575.47;5102090;28;20084;-79
2023/01/11 04:47:15;;;;;;;2.90;2.10;;;;;;;9.95;100.00;100582.44;5105350;28;20043;-78
2023/01/11 04:49:41;;;;;;;2.83;1.83;;;;;;;9.97;100.00;100572.41;5103957;28;20112;-78
2023/01/11 04:52:08;;;;;;;1.98;1.63;;;;;;;9.98;100.00;100577.56;5107405;28;20028;-78
2023/01/11 04:54:33;;;;;;;1.73;1.48;;;;;;;10.01;100.00;100584.34;5104267;28;20046;-78
2023/01/11 04:56:58;;;;;;;2.75;1.90;;;;;;;10.02;100.00;100583.31;5104459;28;20024;-79
2023/01/11 04:59:24;;;;;;;2.92;2.25;;;;;;;10.03;100.00;100583.13;5101912;28;20036;-78
2023/01/11 05:01:49;;;;;;;4.20;1.85;;;;;;;10.04;100.00;100584.75;5103059;28;20034;-78
2023/01/11 05:04:15;;;;;;;3.50;2.13;;;;;;;10.03;100.00;100585.78;5103842;28;20030;-78
2023/01/11 05:06:40;;;;;;;4.30;2.40;;;;;;;10.08;100.00;100599.28;5102273;28;20063;-78
2023/01/11 05:09:10;;;;;;;3.25;1.80;;;;;;;10.06;100.00;100596.03;5103216;28;20028;-78
2023/01/11 05:11:36;;;;;;;3.08;1.77;;;;;;;10.10;100.00;100589.25;5104212;28;20421;-79
2023/01/11 05:14:01;;;;;;;1.92;1.75;;;;;;;10.09;100.00;100584.97;5101386;28;20031;-78
2023/01/11 05:16:27;;;;;;;3.20;2.45;;;;;;;10.11;100.00;100600.75;5102848;28;21029;-78
2023/01/11 05:18:55;;;;;;;3.17;1.70;;;;;;;10.10;100.00;100597.25;5105098;28;20035;-78
2023/01/11 05:21:23;;;;;;;3.97;2.08;;;;;;;10.08;100.00;100591.28;5102582;28;20024;-78
2023/01/11 05:23:49;;;;;;;6.18;2.17;;;;;;;10.12;100.00;100593.59;5104259;28;20028;-79
2023/01/11 05:26:22;;;;;;;3.95;2.10;;;;;;;10.14;100.00;100605.69;5102308;27;20539;-78
2023/01/11 05:28:48;;;;;;;3.58;1.98;;;;;;;10.15;100.00;100607.31;5104156;28;20027;-79
2023/01/11 05:31:14;;;;;;;5.90;2.75;;;;;;;10.11;100.00;100606.06;5102679;28;20537;-79
2023/01/11 05:33:40;;;;;;;5.45;2.53;;;;;;;10.16;100.00;100616.94;5100811;28;20024;-79
2023/01/11 05:36:10;;;;;;;6.18;2.60;;;;;;;10.15;100.00;100622.50;5099200;28;20024;-78
2023/01/11 05:38:35;;;;;;;5.47;2.67;;;;;;;10.16;100.00;100619.63;5105002;28;20520;-78
2023/01/11 05:41:04;;;;;;;7.13;3.28;;;;;;;10.13;100.00;100622.69;5104173;28;20032;-78
2023/01/11 05:43:30;;;;;;;7.05;3.85;;;;;;;10.14;100.00;100621.69;5101583;28;20032;-79
2023/01/11 05:45:56;;;;;;;6.03;3.08;;;;;;;10.14;100.00;100618.16;5101634;28;20042;-79
2023/01/11 05:48:23;;;;;;;10.65;3.38;;;;;;;10.08;100.00;100615.28;5099299;28;20044;-79
2023/01/11 05:50:52;;;;;;;6.60;3.25;;;;;;;10.08;100.00;100623.28;5105685;28;20019;-79
2023/01/11 05:53:19;;;;;;;10.23;3.50;;;;;;;10.07;100.00;100623.50;5104678;28;20030;-79
2023/01/11 05:55:54;;;;;;;7.57;3.40;;;;;;;10.07;100.00;100616.31;5102360;28;20031;-78
2023/01/11 05:58:21;;;;;;;7.68;3.35;;;;;;;10.07;100.00;100621.66;5103985;28;20027;-78
2023/01/11 06:00:48;;;;;;;8.85;3.08;;;;;;;10.04;100.00;100619.38;5104433;28;20031;-79
2023/01/11 06:03:13;;;;;;;11.32;4.60;;;;;;;10.06;100.00;100627.16;5103298;28;20039;-78
2023/01/11 06:05:39;;;;;;;11.13;4.13;;;;;;;10.03;100.00;100619.56;5103365;28;20163;-78
2023/01/11 06:08:04;;;;;;;6.78;3.83;;;;;;;10.03;100.00;100624.91;5102265;28;20039;-79
2023/01/11 06:10:29;;;;;;;11.00;3.80;;;;;;;10.03;100.00;100622.22;5103634;28;20115;-79
2023/01/11 06:13:25;;;;;;;12.30;3.55;;;;;;;9.97;100.00;100628.38;5101450;28;20090;-79
2023/01/11 06:15:40;;;;;;;12.63;3.85;;;;;;;9.95;100.00;100630.41;5101087;28;20047;-78
2023/01/11 06:18:05;;;;;;;9.40;3.45;;;;;;;9.88;100.00;100641.03;5101683;28;20034;-78
2023/01/11 06:20:31;;;;;;;10.95;3.10;;;;;;;9.83;100.00;100646.13;5103154;28;20058;-78
2023/01/11 06:22:56;;;;;;;6.63;2.17;;;;;;;9.74;100.00;100650.78;5104022;28;20043;-78
2023/01/11 06:25:21;;;;;;;6.00;2.97;;;;;;;9.60;100.00;100641.06;5100302;28;20108;-79
2023/01/11 06:27:47;;;;;;;11.10;2.08;;;;;;;9.61;100.00;100662.16;5099934;28;20028;-78
2023/01/11 06:30:12;;;;;;;9.20;3.03;;;;;;;9.57;100.00;100662.78;5104916;28;20032;-78
2023/01/11 06:32:38;;;;;;;11.80;3.03;;;;;;;9.56;100.00;100666.44;5104139;28;20027;-79
2023/01/11 06:35:03;;;;;;;8.50;2.75;;;;;;;9.53;100.00;100675.63;5100856;28;20370;-79
2023/01/11 06:37:29;;;;;;;10.40;2.38;;;;;;;9.50;100.00;100672.53;5098167;28;20028;-79
2023/01/11 06:39:54;;;;;;;17.23;3.95;;;;;;;9.51;100.00;100672.34;5101167;28;20030;-79
2023/01/11 06:42:19;;;;;;;8.98;3.00;;;;;;;9.53;100.00;100675.63;5104727;28;20116;-79
2023/01/11 06:44:45;;;;;;;11.15;2.10;;;;;;;9.55;100.00;100688.75;5100789;28;20111;-78
2023/01/11 06:47:10;;;;;;;12.70;2.60;;;;;;;9.54;100.00;100697.78;5103276;28;20387;-79
2023/01/11 06:49:35;;;;;;;6.55;2.15;;;;;;;9.50;100.00;100715.94;5103969;28;20426;-79
2023/01/11 06:52:01;;;;;;;8.40;2.10;;;;;;;9.49;100.00;100708.19;5101449;28;20023;-79
2023/01/11 06:54:26;;;;;;;13.32;3.45;;;;;;;9.47;100.00;100699.56;5104354;28;20031;-79
2023/01/11 06:56:51;;;;;;;10.70;2.78;;;;;;;9.37;100.00;100699.88;5101580;28;20024;-79
2023/01/11 06:59:17;;;;;;;9.68;2.60;;;;;;;9.41;100.00;100717.94;5098849;28;20070;-79
2023/01/11 07:01:42;;;;;;;12.85;2.58;;;;;;;9.35;100.00;100728.50;5103728;28;20895;-79
2023/01/11 07:04:07;;;;;;;15.82;3.00;;;;;;;9.42;100.00;100742.72;5102026;28;20898;-79
2023/01/11 07:06:34;;;;;;;13.75;2.90;;;;;;;9.43;100.00;100741.69;5101535;28;20033;-80
2023/01/11 07:08:59;;;;;;;6.68;2.22;;;;;;;9.39;100.00;100732.47;5100593;28;20032;-80
2023/01/11 07:11:25;;;;;;;14.50;3.10;;;;;;;9.40;100.00;100744.75;5100230;28;20474;-79
2023/01/11 07:13:50;;;;;;;9.13;2.10;;;;;;;9.33;100.00;100739.38;5101839;27;20438;-79
2023/01/11 07:16:16;;;;;;;17.40;2.80;;;;;;;9.33;100.00;100742.03;5099508;28;20055;-79
2023/01/11 07:18:41;;;;;;;8.95;2.28;;;;;;;9.27;100.00;100732.13;5100092;28;20063;-80
2023/01/11 07:21:07;;;;;;;7.55;2.22;;;;;;;9.26;100.00;100759.78;5099344;28;20046;-80
2023/01/11 07:23:32;;;;;;;8.32;1.95;;;;;;;9.28;100.00;100764.91;5098441;28;20067;-79
2023/01/11 07:25:58;;;;;;;12.80;2.50;;;;;;;9.25;100.00;100758.13;5103780;28;20047;-79
2023/01/11 07:28:24;;;;;;;14.73;2.45;;;;;;;9.25;100.00;100759.94;5100721;28;20494;-79
2023/01/11 07:30:49;;;;;;;7.07;3.08;;;;;;;9.26;100.00;100764.28;5101727;28;20382;-78
2023/01/11 07:33:15;;;;;;;11.35;3.33;;;;;;;9.24;100.00;100776.94;5096657;28;20474;-79
2023/01/11 07:35:40;;;;;;;9.60;4.00;;;;;;;9.23;100.00;100784.09;5090553;28;20032;-79
2023/01/11 07:38:08;;;;;;;9.02;2.50;;;;;;;9.21;100.00;100788.78;5090252;28;20043;-79
2023/01/11 07:40:35;;;;;;;15.30;2.53;;;;;;;9.14;100.00;100762.13;5110127;28;20038;-79
2023/01/11 07:43:10;;;;;;;16.35;3.97;;;;;;;9.17;100.00;100788.34;5110030;28;20106;-79
2023/01/11 07:45:37;;;;;;;18.02;4.25;;;;;;;9.15;100.00;100792.22;5101396;28;20490;-79
2023/01/11 07:48:07;;;;;;;11.45;2.95;;;;;;;9.12;100.00;100796.06;5090042;28;20067;-79
2023/01/11 07:50:32;;;;;;;14.25;2.08;;;;;;;9.11;100.00;100806.88;5092026;28;20101;-79
2023/01/11 07:52:58;;;;;;;14.55;2.58;;;;;;;9.10;100.00;100810.56;5109598;28;20032;-79
2023/01/11 07:55:24;;;;;;;18.75;5.40;;;;;;;9.04;100.00;100813.97;5097832;28;20024;-81
2023/01/11 07:57:49;;;;;;;14.98;2.70;;;;;;;9.06;100.00;100820.75;5090654;28;20084;-82
2023/01/11 08:00:15;;;;;;;15.50;2.67;;;;;;;9.05;100.00;100823.63;5098654;28;20463;-82
2023/01/11 08:02:40;;;;;;;13.70;4.60;;;;;;;9.03;100.00;100834.44;5090150;28;20120;-81
2023/01/11 08:05:06;;;;;;;8.90;2.50;;;;;;;8.99;100.00;100835.84;5100235;28;20475;-82
2023/01/11 08:07:31;;;;;;;16.25;4.13;;;;;;;8.98;100.00;100842.16;5091840;28;20092;-81
2023/01/11 08:09:57;;;;;;;16.85;4.88;;;;;;;8.96;100.00;100846.81;5110022;28;20031;-80
2023/01/11 08:15:09;;;;;;;10.50;2.83;;;;;;;8.94;100.00;100857.66;5090261;28;20398;-78
2023/01/11 08:17:34;;;;;;;5.80;2.28;;;;;;;8.91;100.00;100854.56;5090001;28;20044;-80
2023/01/11 08:19:59;;;;;;;19.58;4.40;;;;;;;8.88;100.00;100855.75;5100609;28;20067;-81
2023/01/11 08:22:25;;;;;;;13.93;2.70;;;;;;;8.82;100.00;100867.09;5104133;28;20060;-81
2023/01/11 08:24:50;;;;;;;11.43;2.20;;;;;;;8.84;100.00;100878.41;5101124;28;20035;-79
2023/01/11 08:27:16;;;;;;;20.60;3.85;;;;;;;8.82;100.00;100879.59;5104474;28;20036;-81
2023/01/11 08:29:43;;;;;;;8.65;3.00;;;;;;;8.77;100.00;100888.09;5094553;28;20118;-81
2023/01/11 08:32:09;;;;;;;9.57;2.13;;;;;;;8.74;100.00;100896.47;5104253;28;20027;-81
2023/01/11 08:34:34;;;;;;;11.48;2.90;;;;;;;8.70;100.00;100901.34;5098820;28;20032;-80
2023/01/11 08:37:00;;;;;;;15.60;4.13;;;;;;;8.76;100.00;100921.88;5101021;28;20019;-81
2023/01/11 08:39:29;;;;;;;16.58;3.55;;;;;;;8.76;100.00;100926.38;5105139;28;20371;-81
2023/01/11 08:41:55;;;;;;;13.85;2.45;;;;;;;8.76;100.00;100927.19;5096403;28;20062;-80
2023/01/11 08:44:21;;;;;;;19.67;2.63;;;;;;;8.73;100.00;100927.56;5107710;28;20072;-81
2023/01/11 08:46:46;;;;;;;18.23;3.33;;;;;;;8.76;100.00;100934.34;5109257;28;20610;-80
2023/01/11 08:49:11;;;;;;;14.43;2.42;;;;;;;8.76;100.00;100926.38;5098321;28;20502;-81
2023/01/11 08:51:38;;;;;;;14.00;2.70;;;;;;;8.71;100.00;100913.59;5098515;28;20537;-81
2023/01/11 08:54:07;;;;;;;8.25;2.47;;;;;;;8.70;100.00;100927.91;5102054;28;20042;-81
2023/01/11 08:56:33;;;;;;;14.25;3.72;;;;;;;8.70;100.00;100930.56;5089488;28;20020;-80
2023/01/11 08:58:59;;;;;;;7.75;2.50;;;;;;;8.67;100.00;100936.28;5098972;28;20521;-80
2023/01/11 09:01:25;;;;;;;8.65;2.63;;;;;;;8.65;100.00;100932.97;5108908;28;20034;-80
2023/01/11 09:03:50;;;;;;;12.43;2.67;;;;;;;8.62;100.00;100943.97;5103002;28;20032;-80
2023/01/11 09:06:17;;;;;;;13.98;2.55;;;;;;;8.60;100.00;100938.00;5089463;28;20032;-82
2023/01/11 09:08:43;;;;;;;11.52;3.95;;;;;;;8.59;100.00;100941.63;5096442;28;20034;-81
2023/01/11 09:11:52;;;;;;;13.25;4.65;;;;;;;8.54;100.00;100946.66;5093481;28;20112;-81
2023/01/11 09:13:53;;;;;;;15.00;3.25;;;;;;;8.54;100.00;100944.00;5100875;28;20410;-83
2023/01/11 09:16:19;;;;;;;10.88;2.25;;;;;;;8.51;100.00;100947.88;5101781;28;20020;-82
2023/01/11 09:18:44;;;;;;;12.32;3.35;;;;;;;8.47;100.00;100941.28;5105106;28;20028;-83
2023/01/11 09:21:09;;;;;;;14.65;3.85;;;;;;;8.45;100.00;100945.94;5093675;28;20027;-81
2023/01/11 09:23:35;;;;;;;12.82;2.75;;;;;;;8.43;100.00;100950.59;5108715;28;20031;-83
2023/01/11 09:26:01;;;;;;;16.23;3.47;;;;;;;8.41;100.00;100957.09;5105450;28;20035;-79
2023/01/11 09:28:26;;;;;;;12.73;3.83;;;;;;;8.34;100.00;100957.78;5104524;28;20027;-81
2023/01/11 09:30:52;;;;;;;11.93;2.28;;;;;;;8.35;100.00;100958.63;5095666;28;20063;-81
2023/01/11 09:33:17;;;;;;;8.27;2.60;;;;;;;8.33;100.00;100971.25;5093053;28;20497;-80
2023/01/11 09:35:45;;;;;;;14.10;3.75;;;;;;;8.29;100.00;100972.63;5093010;28;20077;-80
2023/01/11 09:38:10;;;;;;;12.00;3.50;;;;;;;8.24;100.00;100972.34;5092963;28;20028;-80
2023/01/11 09:41:07;;;;;;;11.48;2.83;;;;;;;8.24;100.00;100982.97;5091532;28;20036;-79
2023/01/11 09:43:40;;;;;;;12.88;3.28;;;;;;;8.18;100.00;100981.03;5107428;28;20028;-81
2023/01/11 09:46:07;;;;;;;11.63;2.33;;;;;;;8.17;100.00;100974.88;5112229;28;20035;-80
2023/01/11 09:48:44;;;;;;;11.60;2.10;;;;;;;8.21;100.00;100984.13;5110848;28;20043;-81
2023/01/11 09:51:14;;;;;;;8.85;2.42;;;;;;;8.22;100.00;100988.44;5094912;28;20044;-77
2023/01/11 09:53:48;;;;;;;9.93;4.00;;;;;;;8.26;100.00;100981.78;5092772;28;20067;-78
2023/01/11 09:56:22;;;;;;;10.65;2.63;;;;;;;8.32;100.00;100978.41;5091261;28;20108;-78
2023/01/11 09:59:17;;;;;;;11.50;3.05;;;;;;;8.39;100.00;100988.34;5092571;28;20059;-78
2023/01/11 10:01:52;;;;;;;9.93;2.08;;;;;;;8.34;100.00;100973.75;5091089;28;20115;-78
2023/01/11 10:04:50;;;;;;;11.35;2.80;;;;;;;8.33;100.00;100988.03;5092494;28;20432;-78
2023/01/11 10:07:45;;;;;;;18.17;3.53;;;;;;;8.34;100.00;101002.16;5083733;28;20672;-78
2023/01/11 10:10:29;;;;;;;15.00;3.50;;;;;;;8.42;100.00;100998.63;5092194;28;20024;-70
2023/01/11 10:13:10;;;;;;;8.90;2.63;;;;;;;8.53;100.00;101001.69;5092474;28;20081;-71
2023/01/11 10:16:02;;;;;;;16.38;4.10;;;;;;;8.62;100.00;100994.47;5092319;28;20032;-71
2023/01/11 10:19:18;;;;;;;34.08;3.80;;;;;;;8.75;100.00;101001.81;5092253;28;20052;-72
2023/01/11 10:21:59;;;;;;;9.15;2.50;;;;;;;8.81;100.00;101000.28;5081712;28;20059;-71
2023/01/11 10:24:36;;;;;;;12.85;1.63;;;;;;;8.91;100.00;101007.00;5091896;28;20016;-71
2023/01/11 10:27:07;;;;;;;11.60;3.17;;;;;;;8.95;100.00;101008.25;5092015;28;20182;-71
2023/01/11 10:32:49;;;;;;;14.35;4.05;;;;;;;9.06;100.00;100998.19;5091856;28;20043;-71
2023/01/11 10:35:57;;;;;;;11.55;3.08;;;;;;;9.07;100.00;100990.03;5090551;28;20028;-71
2023/01/11 10:41:49;;;;;;;19.08;4.78;;;;;;;9.25;100.00;100999.47;5091789;28;20878;-71
2023/01/11 10:44:30;;;;;;;10.88;1.77;;;;;;;9.29;100.00;101004.22;5091559;28;20081;-71
2023/01/11 10:46:58;;;;;;;11.63;3.85;;;;;;;9.29;100.00;101012.22;5091463;28;20035;-72
2023/01/11 10:49:24;;;;;;;11.80;3.17;;;;;;;9.29;100.00;101016.72;5091597;28;20189;-72
2023/01/11 10:51:54;;;;;;;12.63;2.70;;;;;;;9.26;100.00;101009.94;5091512;28;20027;-72
2023/01/11 10:54:25;;;;;;;16.92;2.53;;;;;;;9.28;100.00;101005.25;5091473;28;20038;-72
2023/01/11 10:57:07;;;;;;;11.20;3.40;;;;;;;9.35;100.00;101019.50;5090202;28;20012;-71
2023/01/11 10:59:52;;;;;;;14.35;3.80;;;;;;;9.41;100.00;101015.25;5091776;28;20390;-72
2023/01/11 11:02:40;;;;;;;19.23;3.70;;;;;;;9.43;100.00;101022.06;5091443;28;20027;-72
2023/01/11 11:05:38;;;;;;;13.90;3.65;;;;;;;9.42;100.00;101017.72;5081049;28;20114;-72
2023/01/11 11:08:25;;;;;;;13.68;2.75;;;;;;;9.43;100.00;101016.72;5090220;28;20123;-72
2023/01/11 11:11:01;;;;;;;13.82;3.58;;;;;;;9.46;100.00;101022.66;5091011;28;20028;-72
2023/01/11 11:13:52;;;;;;;13.25;3.03;;;;;;;9.48;100.00;101020.66;5091033;28;20081;-72
2023/01/11 11:16:20;;;;;;;7.50;2.13;;;;;;;9.54;100.00;101020.75;5090921;28;20028;-71
2023/01/11 11:18:45;;;;;;;11.27;3.97;;;;;;;9.51;100.00;101012.28;5090900;28;20035;-72
2023/01/11 11:21:22;;;;;;;10.57;2.30;;;;;;;9.53;100.00;101021.75;5091002;28;20043;-72
2023/01/11 11:23:55;;;;;;;11.60;2.92;;;;;;;9.59;100.00;101015.69;5090756;28;20032;-72
2023/01/11 11:26:23;;;;;;;10.05;2.58;;;;;;;9.63;100.00;101016.94;5090697;28;20375;-71
2023/01/11 11:29:00;;;;;;;12.50;3.65;;;;;;;9.70;100.00;101032.22;5090686;28;20028;-72
2023/01/11 11:31:27;;;;;;;9.88;3.42;;;;;;;9.66;100.00;101021.09;5090822;28;20035;-72
2023/01/11 11:33:53;;;;;;;11.30;2.97;;;;;;;9.70;100.00;101030.38;5090696;28;20028;-72
2023/01/11 11:36:19;;;;;;;12.25;2.30;;;;;;;9.67;100.00;101025.41;5110096;28;20031;-72
2023/01/11 11:39:17;;;;;;;8.77;3.28;;;;;;;9.76;100.00;101026.94;5109869;28;20050;-72
2023/01/11 11:41:51;;;;;;;17.92;4.28;;;;;;;9.80;100.00;101032.75;5109917;28;20093;-72
2023/01/11 11:44:25;;;;;;;16.15;4.35;;;;;;;9.75;100.00;101035.13;5110093;28;20541;-72
2023/01/11 11:47:01;;;;;;;8.57;2.40;;;;;;;9.80;100.00;101038.91;5108233;28;20027;-72
2023/01/11 11:49:28;;;;;;;15.00;3.90;;;;;;;9.79;100.00;101037.22;5108416;28;20043;-72
2023/01/11 11:51:54;;;;;;;13.05;3.78;;;;;;;9.81;100.00;101048.53;5108470;28;20546;-73
2023/01/11 11:54:25;;;;;;;12.48;2.92;;;;;;;9.75;100.00;101038.63;5090441;28;20123;-72
2023/01/11 11:56:52;;;;;;;12.40;3.58;;;;;;;9.83;100.00;101046.50;5090514;28;20020;-72
2023/01/11 11:59:21;;;;;;;15.18;2.13;;;;;;;9.86;100.00;101046.13;5090310;28;20416;-72
2023/01/11 12:01:54;;;;;;;10.15;2.65;;;;;;;9.87;100.00;101053.09;5088816;28;20435;-72